sensor_id;sensor_type;location;lat;lon;timestamp;pressure;altitude;pressure_sealevel;temperature;humidity
58018;BME280;43810;50.860;19.226;2023-03-04T00:02:01;98604.56;;;-0.00;82.92
58018;BME280;43810;50.860;19.226;2023-03-04T00:04:27;98596.47;;;0.01;83.11
58018;BME280;43810;50.860;19.226;2023-03-04T00:06:53;98595.16;;;0.09;82.65
58018;BME280;43810;50.860;19.226;2023-03-04T00:09:19;98593.59;;;0.08;82.72
58018;BME280;43810;50.860;19.226;2023-03-04T00:11:44;98586.56;;;0.13;82.62
58018;BME280;43810;50.860;19.226;2023-03-04T00:14:10;98575.34;;;0.18;82.64
58018;BME280;43810;50.860;19.226;2023-03-04T00:16:36;98564.09;;;0.12;83.00
58018;BME280;43810;50.860;19.226;2023-03-04T00:19:02;98568.00;;;0.10;83.04
58018;BME280;43810;50.860;19.226;2023-03-04T00:21:28;98574.25;;;0.09;83.03
58018;BME280;43810;50.860;19.226;2023-03-04T00:23:54;98578.19;;;0.06;83.25
58018;BME280;43810;50.860;19.226;2023-03-04T00:26:21;98566.41;;;-0.01;83.21
58018;BME280;43810;50.860;19.226;2023-03-04T00:28:47;98572.44;;;0.04;83.34
58018;BME280;43810;50.860;19.226;2023-03-04T00:31:13;98570.88;;;0.13;82.73
58018;BME280;43810;50.860;19.226;2023-03-04T00:33:39;98565.91;;;0.02;82.98
58018;BME280;43810;50.860;19.226;2023-03-04T00:36:05;98563.03;;;-0.02;83.20
58018;BME280;43810;50.860;19.226;2023-03-04T00:38:31;98567.75;;;-0.04;83.59
58018;BME280;43810;50.860;19.226;2023-03-04T00:40:57;98568.25;;;-0.07;83.78
58018;BME280;43810;50.860;19.226;2023-03-04T00:43:23;98574.00;;;-0.05;83.81
58018;BME280;43810;50.860;19.226;2023-03-04T00:45:48;98568.75;;;-0.10;83.75
58018;BME280;43810;50.860;19.226;2023-03-04T00:48:14;98567.97;;;-0.11;84.31
58018;BME280;43810;50.860;19.226;2023-03-04T00:50:41;98567.19;;;-0.11;84.65
58018;BME280;43810;50.860;19.226;2023-03-04T00:53:08;98567.44;;;-0.18;84.85
58018;BME280;43810;50.860;19.226;2023-03-04T00:55:34;98572.13;;;-0.15;84.92
58018;BME280;43810;50.860;19.226;2023-03-04T00:58:01;98555.44;;;-0.19;85.32
58018;BME280;43810;50.860;19.226;2023-03-04T01:00:28;98548.91;;;-0.11;85.27
58018;BME280;43810;50.860;19.226;2023-03-04T01:02:54;98552.59;;;-0.07;85.23
58018;BME280;43810;50.860;19.226;2023-03-04T01:05:20;98548.91;;;-0.16;85.43
58018;BME280;43810;50.860;19.226;2023-03-04T01:07:46;98555.66;;;-0.25;85.63
58018;BME280;43810;50.860;19.226;2023-03-04T01:10:13;98544.69;;;-0.32;86.32
58018;BME280;43810;50.860;19.226;2023-03-04T01:12:40;98547.31;;;-0.32;86.02
58018;BME280;43810;50.860;19.226;2023-03-04T01:15:10;98544.41;;;-0.36;86.04
58018;BME280;43810;50.860;19.226;2023-03-04T01:17:37;98532.41;;;-0.37;86.58
58018;BME280;43810;50.860;19.226;2023-03-04T01:20:05;98535.03;;;-0.37;86.58
58018;BME280;43810;50.860;19.226;2023-03-04T01:22:32;98527.75;;;-0.30;86.71
58018;BME280;43810;50.860;19.226;2023-03-04T01:24:57;98527.97;;;-0.36;86.81
58018;BME280;43810;50.860;19.226;2023-03-04T01:27:24;98527.72;;;-0.35;86.79
58018;BME280;43810;50.860;19.226;2023-03-04T01:29:49;98513.88;;;-0.35;86.44
58018;BME280;43810;50.860;19.226;2023-03-04T01:32:15;98509.47;;;-0.40;86.51
58018;BME280;43810;50.860;19.226;2023-03-04T01:34:41;98499.50;;;-0.48;87.22
58018;BME280;43810;50.860;19.226;2023-03-04T01:37:09;98509.94;;;-0.48;87.23
58018;BME280;43810;50.860;19.226;2023-03-04T01:39:34;98495.06;;;-0.48;86.98
58018;BME280;43810;50.860;19.226;2023-03-04T01:42:00;98502.91;;;-0.53;86.86
58018;BME280;43810;50.860;19.226;2023-03-04T01:44:26;98507.56;;;-0.60;87.25
58018;BME280;43810;50.860;19.226;2023-03-04T01:46:53;98494.53;;;-0.55;87.47
58018;BME280;43810;50.860;19.226;2023-03-04T01:49:20;98489.84;;;-0.48;87.15
58018;BME280;43810;50.860;19.226;2023-03-04T01:51:56;98485.44;;;-0.42;86.82
58018;BME280;43810;50.860;19.226;2023-03-04T01:54:22;98489.63;;;-0.41;87.10
58018;BME280;43810;50.860;19.226;2023-03-04T01:56:50;98474.19;;;-0.37;87.10
58018;BME280;43810;50.860;19.226;2023-03-04T01:59:25;98482.81;;;-0.42;87.04
58018;BME280;43810;50.860;19.226;2023-03-04T02:01:55;98476.53;;;-0.46;87.06
58018;BME280;43810;50.860;19.226;2023-03-04T02:04:28;98480.19;;;-0.47;86.86
58018;BME280;43810;50.860;19.226;2023-03-04T02:06:55;98475.50;;;-0.55;86.80
58018;BME280;43810;50.860;19.226;2023-03-04T02:09:22;98472.38;;;-0.52;86.85
58018;BME280;43810;50.860;19.226;2023-03-04T02:11:50;98471.56;;;-0.58;86.06
58018;BME280;43810;50.860;19.226;2023-03-04T02:14:16;98471.81;;;-0.59;86.45
58018;BME280;43810;50.860;19.226;2023-03-04T02:16:43;98466.09;;;-0.56;86.11
58018;BME280;43810;50.860;19.226;2023-03-04T02:19:18;98472.09;;;-0.56;86.60
58018;BME280;43810;50.860;19.226;2023-03-04T02:21:49;98459.31;;;-0.52;86.04
58018;BME280;43810;50.860;19.226;2023-03-04T02:24:25;98466.09;;;-0.56;85.79
58018;BME280;43810;50.860;19.226;2023-03-04T02:26:54;98469.75;;;-0.57;85.69
58018;BME280;43810;50.860;19.226;2023-03-04T02:29:20;98462.44;;;-0.55;85.08
58018;BME280;43810;50.860;19.226;2023-03-04T02:31:49;98457.75;;;-0.63;85.39
58018;BME280;43810;50.860;19.226;2023-03-04T02:34:21;98463.47;;;-0.61;85.46
58018;BME280;43810;50.860;19.226;2023-03-04T02:36:48;98460.34;;;-0.58;85.11
58018;BME280;43810;50.860;19.226;2023-03-04T02:39:41;98456.97;;;-0.64;85.50
58018;BME280;43810;50.860;19.226;2023-03-04T02:42:08;98460.84;;;-0.71;86.05
58018;BME280;43810;50.860;19.226;2023-03-04T02:44:40;98447.31;;;-0.63;85.84
58018;BME280;43810;50.860;19.226;2023-03-04T02:47:10;98454.09;;;-0.57;85.76
58018;BME280;43810;50.860;19.226;2023-03-04T02:49:38;98436.59;;;-0.57;86.10
58018;BME280;43810;50.860;19.226;2023-03-04T02:52:06;98441.31;;;-0.54;86.02
58018;BME280;43810;50.860;19.226;2023-03-04T02:54:33;98448.09;;;-0.58;85.76
58018;BME280;43810;50.860;19.226;2023-03-04T02:57:05;98449.94;;;-0.53;85.88
58018;BME280;43810;50.860;19.226;2023-03-04T02:59:32;98451.25;;;-0.51;85.71
58018;BME280;43810;50.860;19.226;2023-03-04T03:01:58;98442.63;;;-0.51;86.00
58018;BME280;43810;50.860;19.226;2023-03-04T03:04:25;98442.34;;;-0.50;85.84
58018;BME280;43810;50.860;19.226;2023-03-04T03:06:51;98434.50;;;-0.60;85.71
58018;BME280;43810;50.860;19.226;2023-03-04T03:09:18;98423.28;;;-0.60;86.06
58018;BME280;43810;50.860;19.226;2023-03-04T03:11:44;98431.38;;;-0.57;85.62
58018;BME280;43810;50.860;19.226;2023-03-04T03:14:10;98425.41;;;-0.62;85.46
58018;BME280;43810;50.860;19.226;2023-03-04T03:16:36;98416.78;;;-0.58;85.47
58018;BME280;43810;50.860;19.226;2023-03-04T03:19:02;98423.06;;;-0.54;85.22
58018;BME280;43810;50.860;19.226;2023-03-04T03:21:28;98426.69;;;-0.55;85.23
58018;BME280;43810;50.860;19.226;2023-03-04T03:23:54;98413.94;;;-0.51;84.90
58018;BME280;43810;50.860;19.226;2023-03-04T03:26:20;98414.97;;;-0.52;84.83
58018;BME280;43810;50.860;19.226;2023-03-04T03:28:46;98407.66;;;-0.50;85.19
58018;BME280;43810;50.860;19.226;2023-03-04T03:31:12;98410.78;;;-0.53;84.93
58018;BME280;43810;50.860;19.226;2023-03-04T03:33:38;98409.75;;;-0.52;84.85
58018;BME280;43810;50.860;19.226;2023-03-04T03:36:06;98404.78;;;-0.49;84.74
58018;BME280;43810;50.860;19.226;2023-03-04T03:38:33;98410.28;;;-0.40;84.46
58018;BME280;43810;50.860;19.226;2023-03-04T03:40:58;98401.41;;;-0.44;83.82
58018;BME280;43810;50.860;19.226;2023-03-04T03:43:24;98414.19;;;-0.53;84.34
58018;BME280;43810;50.860;19.226;2023-03-04T03:45:50;98400.34;;;-0.53;84.00
58018;BME280;43810;50.860;19.226;2023-03-04T03:48:17;98403.50;;;-0.51;83.86
58018;BME280;43810;50.860;19.226;2023-03-04T03:50:43;98396.97;;;-0.43;84.04
58018;BME280;43810;50.860;19.226;2023-03-04T03:53:10;98397.75;;;-0.43;83.44
58018;BME280;43810;50.860;19.226;2023-03-04T03:55:36;98388.34;;;-0.49;83.07
58018;BME280;43810;50.860;19.226;2023-03-04T03:58:03;98389.63;;;-0.57;82.89
58018;BME280;43810;50.860;19.226;2023-03-04T04:00:29;98387.84;;;-0.51;83.30
58018;BME280;43810;50.860;19.226;2023-03-04T04:02:57;98387.56;;;-0.44;83.27
58018;BME280;43810;50.860;19.226;2023-03-04T04:05:25;98386.78;;;-0.45;83.54
58018;BME280;43810;50.860;19.226;2023-03-04T04:07:51;98383.66;;;-0.42;83.47
58018;BME280;43810;50.860;19.226;2023-03-04T04:10:18;98386.25;;;-0.37;83.44
58018;BME280;43810;50.860;19.226;2023-03-04T04:12:45;98384.69;;;-0.28;83.18
58018;BME280;43810;50.860;19.226;2023-03-04T04:15:11;98384.69;;;-0.28;82.77
58018;BME280;43810;50.860;19.226;2023-03-04T04:17:38;98377.66;;;-0.27;82.57
58018;BME280;43810;50.860;19.226;2023-03-04T04:20:05;98371.38;;;-0.26;82.73
58018;BME280;43810;50.860;19.226;2023-03-04T04:22:33;98375.28;;;-0.24;82.18
58018;BME280;43810;50.860;19.226;2023-03-04T04:25:00;98364.06;;;-0.34;82.41
58018;BME280;43810;50.860;19.226;2023-03-04T04:27:25;98376.34;;;-0.35;82.58
58018;BME280;43810;50.860;19.226;2023-03-04T04:29:51;98367.19;;;-0.32;82.11
58018;BME280;43810;50.860;19.226;2023-03-04T04:32:17;98360.94;;;-0.31;82.26
58018;BME280;43810;50.860;19.226;2023-03-04T04:34:44;98365.09;;;-0.25;82.17
58018;BME280;43810;50.860;19.226;2023-03-04T04:37:09;98358.59;;;-0.33;82.33
58018;BME280;43810;50.860;19.226;2023-03-04T04:39:35;98349.72;;;-0.37;81.91
58018;BME280;43810;50.860;19.226;2023-03-04T04:42:03;98342.41;;;-0.35;82.06
58018;BME280;43810;50.860;19.226;2023-03-04T04:44:30;98334.06;;;-0.32;82.27
58018;BME280;43810;50.860;19.226;2023-03-04T04:46:55;98320.22;;;-0.32;81.94
58018;BME280;43810;50.860;19.226;2023-03-04T04:49:22;98318.38;;;-0.17;81.85
58018;BME280;43810;50.860;19.226;2023-03-04T04:51:48;98312.59;;;-0.14;81.66
58018;BME280;43810;50.860;19.226;2023-03-04T04:54:14;98315.47;;;-0.15;81.38
58018;BME280;43810;50.860;19.226;2023-03-04T04:56:41;98311.84;;;-0.24;81.68
58018;BME280;43810;50.860;19.226;2023-03-04T04:59:07;98310.81;;;-0.23;81.84
58018;BME280;43810;50.860;19.226;2023-03-04T05:01:33;98307.16;;;-0.17;81.40
58018;BME280;43810;50.860;19.226;2023-03-04T05:03:59;98300.88;;;-0.21;81.45
58018;BME280;43810;50.860;19.226;2023-03-04T05:06:26;98296.19;;;-0.19;81.74
58018;BME280;43810;50.860;19.226;2023-03-04T05:08:52;98296.44;;;-0.21;81.60
58018;BME280;43810;50.860;19.226;2023-03-04T05:11:19;98282.34;;;-0.20;81.35
58018;BME280;43810;50.860;19.226;2023-03-04T05:13:46;98283.66;;;-0.17;81.48
58018;BME280;43810;50.860;19.226;2023-03-04T05:16:12;98275.56;;;-0.16;81.53
58018;BME280;43810;50.860;19.226;2023-03-04T05:18:41;98275.56;;;-0.16;80.83
58018;BME280;43810;50.860;19.226;2023-03-04T05:21:07;98281.53;;;-0.15;81.09
58018;BME280;43810;50.860;19.226;2023-03-04T05:23:36;98279.97;;;-0.06;80.98
58018;BME280;43810;50.860;19.226;2023-03-04T05:26:05;98276.00;;;-0.03;80.97
58018;BME280;43810;50.860;19.226;2023-03-04T05:28:31;98281.75;;;0.04;80.77
58018;BME280;43810;50.860;19.226;2023-03-04T05:30:57;98290.09;;;0.06;80.72
58018;BME280;43810;50.860;19.226;2023-03-04T05:33:24;98307.88;;;-0.01;80.60
58018;BME280;43810;50.860;19.226;2023-03-04T05:35:50;98314.44;;;-0.09;80.92
58018;BME280;43810;50.860;19.226;2023-03-04T05:38:18;98310.47;;;-0.01;80.92
58018;BME280;43810;50.860;19.226;2023-03-04T05:40:44;98320.41;;;0.02;80.42
58018;BME280;43810;50.860;19.226;2023-03-04T05:43:11;98322.78;;;-0.07;80.71
58018;BME280;43810;50.860;19.226;2023-03-04T05:45:38;98319.38;;;-0.02;80.66
58018;BME280;43810;50.860;19.226;2023-03-04T05:48:05;98326.16;;;0.04;80.55
58018;BME280;43810;50.860;19.226;2023-03-04T05:50:32;98326.41;;;0.07;80.62
58018;BME280;43810;50.860;19.226;2023-03-04T05:52:58;98319.34;;;0.08;80.80
58018;BME280;43810;50.860;19.226;2023-03-04T05:55:24;98329.00;;;0.17;80.36
58018;BME280;43810;50.860;19.226;2023-03-04T05:57:52;98335.00;;;0.13;80.08
58018;BME280;43810;50.860;19.226;2023-03-04T06:00:18;98321.69;;;0.09;80.52
58018;BME280;43810;50.860;19.226;2023-03-04T06:02:44;98328.72;;;0.09;80.31
58018;BME280;43810;50.860;19.226;2023-03-04T06:05:11;98324.56;;;0.08;80.22
58018;BME280;43810;50.860;19.226;2023-03-04T06:07:40;98334.75;;;0.14;80.50
58018;BME280;43810;50.860;19.226;2023-03-04T06:10:08;98338.66;;;0.17;80.28
58018;BME280;43810;50.860;19.226;2023-03-04T06:12:34;98335.00;;;0.08;80.31
58018;BME280;43810;50.860;19.226;2023-03-04T06:15:00;98339.19;;;0.09;80.61
58018;BME280;43810;50.860;19.226;2023-03-04T06:17:28;98338.66;;;0.17;80.53
58018;BME280;43810;50.860;19.226;2023-03-04T06:19:55;98338.88;;;0.20;79.96
58018;BME280;43810;50.860;19.226;2023-03-04T06:22:22;98339.66;;;0.26;80.16
58018;BME280;43810;50.860;19.226;2023-03-04T06:24:48;98349.09;;;0.17;79.34
58018;BME280;43810;50.860;19.226;2023-03-04T06:27:15;98350.69;;;0.13;79.42
58018;BME280;43810;50.860;19.226;2023-03-04T06:29:41;98350.69;;;0.13;79.48
58018;BME280;43810;50.860;19.226;2023-03-04T06:32:07;98351.94;;;0.20;79.55
58018;BME280;43810;50.860;19.226;2023-03-04T06:34:33;98348.31;;;0.16;79.33
58018;BME280;43810;50.860;19.226;2023-03-04T06:36:59;98356.13;;;0.21;79.22
58018;BME280;43810;50.860;19.226;2023-03-04T06:39:25;98355.09;;;0.22;78.95
58018;BME280;43810;50.860;19.226;2023-03-04T06:41:51;98359.81;;;0.15;78.74
58018;BME280;43810;50.860;19.226;2023-03-04T06:44:17;98363.72;;;0.18;79.27
58018;BME280;43810;50.860;19.226;2023-03-04T06:46:43;98360.06;;;0.14;78.88
58018;BME280;43810;50.860;19.226;2023-03-04T06:49:09;98362.69;;;0.14;78.70
58018;BME280;43810;50.860;19.226;2023-03-04T06:51:35;98372.63;;;0.17;78.89
58018;BME280;43810;50.860;19.226;2023-03-04T06:54:01;98360.59;;;0.11;78.77
58018;BME280;43810;50.860;19.226;2023-03-04T06:56:27;98371.84;;;0.16;79.08
58018;BME280;43810;50.860;19.226;2023-03-04T06:58:53;98373.91;;;0.14;78.46
58018;BME280;43810;50.860;19.226;2023-03-04T07:01:22;98371.03;;;0.21;78.61
58018;BME280;43810;50.860;19.226;2023-03-04T07:03:49;98369.44;;;0.30;78.12
58018;BME280;43810;50.860;19.226;2023-03-04T07:06:18;98365.25;;;0.34;77.82
58018;BME280;43810;50.860;19.226;2023-03-04T07:08:45;98365.22;;;0.39;77.83
58018;BME280;43810;50.860;19.226;2023-03-04T07:11:12;98357.91;;;0.36;77.83
58018;BME280;43810;50.860;19.226;2023-03-04T07:13:38;98361.56;;;0.35;77.53
58018;BME280;43810;50.860;19.226;2023-03-04T07:16:09;98356.88;;;0.32;77.90
58018;BME280;43810;50.860;19.226;2023-03-04T07:18:36;98354.25;;;0.37;77.97
58018;BME280;43810;50.860;19.226;2023-03-04T07:21:02;98359.22;;;0.39;77.78
58018;BME280;43810;50.860;19.226;2023-03-04T07:23:28;98353.75;;;0.35;77.39
58018;BME280;43810;50.860;19.226;2023-03-04T07:25:54;98359.78;;;0.31;77.95
58018;BME280;43810;50.860;19.226;2023-03-04T07:28:20;98350.59;;;0.33;77.84
58018;BME280;43810;50.860;19.226;2023-03-04T07:30:46;98348.78;;;0.39;77.86
58018;BME280;43810;50.860;19.226;2023-03-04T07:33:12;98350.06;;;0.41;77.45
58018;BME280;43810;50.860;19.226;2023-03-04T07:35:40;98343.28;;;0.40;77.51
58018;BME280;43810;50.860;19.226;2023-03-04T07:38:06;98359.47;;;0.42;77.47
58018;BME280;43810;50.860;19.226;2023-03-04T07:40:32;98349.53;;;0.44;77.67
58018;BME280;43810;50.860;19.226;2023-03-04T07:42:58;98339.31;;;0.43;77.65
58018;BME280;43810;50.860;19.226;2023-03-04T07:45:25;98349.03;;;0.42;77.78
58018;BME280;43810;50.860;19.226;2023-03-04T07:47:51;98336.97;;;0.46;77.37
58018;BME280;43810;50.860;19.226;2023-03-04T07:50:17;98344.03;;;0.46;77.37
58018;BME280;43810;50.860;19.226;2023-03-04T07:52:45;98352.38;;;0.48;77.13
58018;BME280;43810;50.860;19.226;2023-03-04T07:55:14;98354.22;;;0.47;77.68
58018;BME280;43810;50.860;19.226;2023-03-04T07:57:45;98341.91;;;0.53;77.57
58018;BME280;43810;50.860;19.226;2023-03-04T08:00:13;98348.16;;;0.57;77.55
58018;BME280;43810;50.860;19.226;2023-03-04T08:02:40;98346.31;;;0.62;77.06
58018;BME280;43810;50.860;19.226;2023-03-04T08:05:06;98344.50;;;0.63;77.08
58018;BME280;43810;50.860;19.226;2023-03-04T08:07:33;98346.28;;;0.68;76.96
58018;BME280;43810;50.860;19.226;2023-03-04T08:09:59;98360.13;;;0.68;77.35
58018;BME280;43810;50.860;19.226;2023-03-04T08:12:25;98357.28;;;0.65;77.14
58018;BME280;43810;50.860;19.226;2023-03-04T08:14:53;98349.94;;;0.72;77.12
58018;BME280;43810;50.860;19.226;2023-03-04T08:17:18;98342.56;;;0.79;76.93
58018;BME280;43810;50.860;19.226;2023-03-04T08:19:45;98340.78;;;0.74;77.09
58018;BME280;43810;50.860;19.226;2023-03-04T08:22:11;98348.38;;;0.71;77.19
58018;BME280;43810;50.860;19.226;2023-03-04T08:24:38;98343.38;;;0.74;77.20
58018;BME280;43810;50.860;19.226;2023-03-04T08:27:03;98339.94;;;0.79;77.08
58018;BME280;43810;50.860;19.226;2023-03-04T08:29:29;98327.91;;;0.83;76.90
58018;BME280;43810;50.860;19.226;2023-03-04T08:31:56;98321.63;;;0.84;76.74
58018;BME280;43810;50.860;19.226;2023-03-04T08:34:26;98334.44;;;0.85;76.88
58018;BME280;43810;50.860;19.226;2023-03-04T08:36:52;98330.03;;;0.76;77.15
58018;BME280;43810;50.860;19.226;2023-03-04T08:39:18;98329.47;;;0.84;77.00
58018;BME280;43810;50.860;19.226;2023-03-04T08:41:46;98331.56;;;0.87;76.69
58018;BME280;43810;50.860;19.226;2023-03-04T08:44:12;98319.75;;;0.89;77.10
58018;BME280;43810;50.860;19.226;2023-03-04T08:46:39;98319.28;;;0.82;76.91
58018;BME280;43810;50.860;19.226;2023-03-04T08:49:06;98328.94;;;0.87;77.58
58018;BME280;43810;50.860;19.226;2023-03-04T08:51:32;98323.91;;;0.95;77.30
58018;BME280;43810;50.860;19.226;2023-03-04T08:54:03;98322.81;;;1.02;76.96
58018;BME280;43810;50.860;19.226;2023-03-04T08:56:29;98317.56;;;1.02;76.99
58018;BME280;43810;50.860;19.226;2023-03-04T08:58:56;98312.59;;;1.05;77.23
58018;BME280;43810;50.860;19.226;2023-03-04T09:01:22;98315.19;;;1.10;76.73
58018;BME280;43810;50.860;19.226;2023-03-04T09:03:48;98324.53;;;1.16;76.69
58018;BME280;43810;50.860;19.226;2023-03-04T09:06:15;98322.19;;;1.15;76.83
58018;BME280;43810;50.860;19.226;2023-03-04T09:08:43;98320.34;;;1.20;77.18
58018;BME280;43810;50.860;19.226;2023-03-04T09:11:09;98321.13;;;1.21;76.92
58018;BME280;43810;50.860;19.226;2023-03-04T09:13:36;98321.69;;;1.13;77.23
58018;BME280;43810;50.860;19.226;2023-03-04T09:16:02;98319.31;;;1.16;77.11
58018;BME280;43810;50.860;19.226;2023-03-04T09:18:28;98314.53;;;1.23;76.86
58018;BME280;43810;50.860;19.226;2023-03-04T09:20:54;98316.34;;;1.28;77.20
58018;BME280;43810;50.860;19.226;2023-03-04T09:23:21;98319.66;;;1.39;76.75
58018;BME280;43810;50.860;19.226;2023-03-04T09:25:48;98317.31;;;1.37;76.40
58018;BME280;43810;50.860;19.226;2023-03-04T09:28:18;98315.75;;;1.36;76.58
58018;BME280;43810;50.860;19.226;2023-03-04T09:30:44;98313.81;;;1.47;76.68
58018;BME280;43810;50.860;19.226;2023-03-04T09:33:10;98301.09;;;1.69;76.17
58018;BME280;43810;50.860;19.226;2023-03-04T09:35:36;98306.91;;;1.90;75.42
58018;BME280;43810;50.860;19.226;2023-03-04T09:38:03;98309.72;;;1.93;74.82
58018;BME280;43810;50.860;19.226;2023-03-04T09:40:32;98305.50;;;1.97;74.99
58018;BME280;43810;50.860;19.226;2023-03-04T09:43:04;98297.53;;;2.07;75.00
58018;BME280;43810;50.860;19.226;2023-03-04T09:45:42;98297.97;;;2.15;74.34
58018;BME280;43810;50.860;19.226;2023-03-04T09:48:15;98288.34;;;2.29;74.03
58018;BME280;43810;50.860;19.226;2023-03-04T09:51:36;98283.75;;;2.21;74.11
58018;BME280;43810;50.860;19.226;2023-03-04T09:56:09;98281.06;;;2.26;74.79
58018;BME280;43810;50.860;19.226;2023-03-04T10:01:23;98287.00;;;2.13;74.72
58018;BME280;43810;50.860;19.226;2023-03-04T10:03:59;98275.56;;;2.03;75.33
58018;BME280;43810;50.860;19.226;2023-03-04T10:06:27;98276.63;;;2.02;75.78
58018;BME280;43810;50.860;19.226;2023-03-04T10:09:00;98281.03;;;2.07;75.75
58018;BME280;43810;50.860;19.226;2023-03-04T10:14:01;98281.97;;;2.16;75.60
58018;BME280;43810;50.860;19.226;2023-03-04T10:16:39;98279.56;;;2.20;75.44
58018;BME280;43810;50.860;19.226;2023-03-04T10:21:48;98274.34;;;1.96;76.52
58018;BME280;43810;50.860;19.226;2023-03-04T10:24:18;98263.94;;;1.91;77.46
58018;BME280;43810;50.860;19.226;2023-03-04T10:26:53;98268.09;;;1.92;77.29
58018;BME280;43810;50.860;19.226;2023-03-04T10:29:22;98263.97;;;1.86;77.92
58018;BME280;43810;50.860;19.226;2023-03-04T10:31:49;98260.13;;;1.78;78.60
58018;BME280;43810;50.860;19.226;2023-03-04T10:34:17;98257.72;;;1.82;78.98
58018;BME280;43810;50.860;19.226;2023-03-04T10:37:07;98246.66;;;1.90;78.87
58018;BME280;43810;50.860;19.226;2023-03-04T10:39:44;98253.59;;;1.99;78.22
58018;BME280;43810;50.860;19.226;2023-03-04T10:47:16;98252.75;;;2.04;78.59
58018;BME280;43810;50.860;19.226;2023-03-04T10:49:53;98242.22;;;2.09;78.43
58018;BME280;43810;50.860;19.226;2023-03-04T10:54:53;98229.25;;;2.18;77.84
58018;BME280;43810;50.860;19.226;2023-03-04T10:57:25;98224.81;;;2.18;77.99
58018;BME280;43810;50.860;19.226;2023-03-04T10:59:57;98232.38;;;2.20;78.09
58018;BME280;43810;50.860;19.226;2023-03-04T11:07:24;98229.25;;;2.18;78.59
58018;BME280;43810;50.860;19.226;2023-03-04T11:09:51;98229.25;;;2.18;78.23
58018;BME280;43810;50.860;19.226;2023-03-04T11:12:20;98227.44;;;2.18;78.72
58018;BME280;43810;50.860;19.226;2023-03-04T11:14:49;98219.22;;;2.25;78.44
58018;BME280;43810;50.860;19.226;2023-03-04T11:17:21;98224.66;;;2.28;78.20
58018;BME280;43810;50.860;19.226;2023-03-04T11:20:06;98216.03;;;2.28;78.04
58018;BME280;43810;50.860;19.226;2023-03-04T11:22:38;98226.22;;;2.29;78.24
58018;BME280;43810;50.860;19.226;2023-03-04T11:25:19;98225.44;;;2.29;78.18
58018;BME280;43810;50.860;19.226;2023-03-04T11:27:52;98215.31;;;2.22;78.61
58018;BME280;43810;50.860;19.226;2023-03-04T11:30:28;98220.09;;;1.96;79.13
58018;BME280;43810;50.860;19.226;2023-03-04T11:33:20;98213.31;;;1.95;80.17
58018;BME280;43810;50.860;19.226;2023-03-04T11:35:55;98207.66;;;2.07;79.86
58018;BME280;43810;50.860;19.226;2023-03-04T11:38:40;98206.81;;;2.12;79.72
58018;BME280;43810;50.860;19.226;2023-03-04T11:41:50;98211.84;;;2.08;80.00
58018;BME280;43810;50.860;19.226;2023-03-04T11:44:13;98199.78;;;2.07;80.57
58018;BME280;43810;50.860;19.226;2023-03-04T11:49:27;98197.56;;;1.95;81.54
58018;BME280;43810;50.860;19.226;2023-03-04T11:52:22;98192.84;;;1.97;82.48
58018;BME280;43810;50.860;19.226;2023-03-04T12:00:20;98185.06;;;2.11;82.17
58018;BME280;43810;50.860;19.226;2023-03-04T12:06:01;98185.78;;;2.17;83.00
58018;BME280;43810;50.860;19.226;2023-03-04T12:11:04;98185.00;;;2.35;82.71
58018;BME280;43810;50.860;19.226;2023-03-04T12:13:41;98190.63;;;2.47;82.35
58018;BME280;43810;50.860;19.226;2023-03-04T12:34:55;98175.91;;;2.65;81.78
58018;BME280;43810;50.860;19.226;2023-03-04T12:37:31;98170.13;;;2.49;82.14
58018;BME280;43810;50.860;19.226;2023-03-04T12:40:26;98157.09;;;2.44;83.32
58018;BME280;43810;50.860;19.226;2023-03-04T12:48:05;98157.59;;;2.46;83.38
58018;BME280;43810;50.860;19.226;2023-03-04T12:51:05;98156.59;;;2.42;83.64
58018;BME280;43810;50.860;19.226;2023-03-04T12:56:38;98145.47;;;2.31;84.21
58018;BME280;43810;50.860;19.226;2023-03-04T12:59:13;98144.91;;;2.34;84.03
58018;BME280;43810;50.860;19.226;2023-03-04T13:04:26;98153.69;;;2.43;83.86
58018;BME280;43810;50.860;19.226;2023-03-04T13:10:04;98147.44;;;2.39;84.43
58018;BME280;43810;50.860;19.226;2023-03-04T13:12:54;98142.97;;;2.40;84.85
58018;BME280;43810;50.860;19.226;2023-03-04T13:17:51;98141.63;;;2.42;84.74
58018;BME280;43810;50.860;19.226;2023-03-04T13:20:38;98139.50;;;2.44;85.14
58018;BME280;43810;50.860;19.226;2023-03-04T13:23:22;98139.03;;;2.42;85.17
58018;BME280;43810;50.860;19.226;2023-03-04T13:28:27;98136.25;;;2.53;84.90
58018;BME280;43810;50.860;19.226;2023-03-04T13:36:00;98131.66;;;2.77;83.29
58018;BME280;43810;50.860;19.226;2023-03-04T13:41:24;98127.75;;;2.74;83.86
58018;BME280;43810;50.860;19.226;2023-03-04T13:43:58;98126.97;;;2.74;83.76
58018;BME280;43810;50.860;19.226;2023-03-04T13:51:40;98122.06;;;2.86;83.63
58018;BME280;43810;50.860;19.226;2023-03-04T13:54:20;98122.97;;;2.95;82.77
58018;BME280;43810;50.860;19.226;2023-03-04T13:57:17;98122.00;;;3.05;82.61
58018;BME280;43810;50.860;19.226;2023-03-04T14:00:03;98111.09;;;2.98;81.72
58018;BME280;43810;50.860;19.226;2023-03-04T14:02:33;98109.75;;;3.00;82.25
58018;BME280;43810;50.860;19.226;2023-03-04T14:05:00;98117.53;;;3.05;81.52
58018;BME280;43810;50.860;19.226;2023-03-04T14:07:30;98111.13;;;3.11;81.17
58018;BME280;43810;50.860;19.226;2023-03-04T14:10:22;98117.44;;;3.10;81.52
58018;BME280;43810;50.860;19.226;2023-03-04T14:12:54;98106.38;;;3.27;81.36
58018;BME280;43810;50.860;19.226;2023-03-04T14:15:27;98108.88;;;3.32;80.31
58018;BME280;43810;50.860;19.226;2023-03-04T14:17:56;98113.97;;;3.29;80.39
58018;BME280;43810;50.860;19.226;2023-03-04T14:20:37;98109.66;;;3.33;80.11
58018;BME280;43810;50.860;19.226;2023-03-04T14:25:51;98113.66;;;3.44;79.35
58018;BME280;43810;50.860;19.226;2023-03-04T14:28:19;98104.69;;;3.45;78.98
58018;BME280;43810;50.860;19.226;2023-03-04T14:30:53;98106.06;;;3.56;79.33
58018;BME280;43810;50.860;19.226;2023-03-04T14:33:27;98097.31;;;3.61;78.66
58018;BME280;43810;50.860;19.226;2023-03-04T14:35:56;98097.31;;;3.61;78.23